Time;durP1;ratioP1;P1;durP2;ratioP2;P2;SDS_P1;SDS_P2;PMS_P1;PMS_P2;Temp;Humidity;BMP_temperature;BMP_pressure;BME280_temperature;BME280_humidity;BME280_pressure;Samples;Min_cycle;Max_cycle;Signal;HPM_P1;HPM_P2
2024/01/01 00:00:14;;;;;;;12.13;6.85;;;4.30;99.90;;;;;;4900120;29;20133;-73
2024/01/01 00:02:40;;;;;;;8.60;5.50;;;4.30;99.90;;;;;;4901403;29;20368;-73
2024/01/01 00:05:07;;;;;;;7.82;4.88;;;4.30;99.90;;;;;;4900540;29;20039;-73
2024/01/01 00:07:33;;;;;;;7.55;4.72;;;4.20;99.90;;;;;;4900222;29;20032;-73
2024/01/01 00:09:59;;;;;;;7.65;4.50;;;4.30;99.90;;;;;;4903055;29;20098;-75
2024/01/01 00:12:24;;;;;;;7.93;5.38;;;4.30;99.90;;;;;;4903680;29;20047;-75
2024/01/01 00:14:50;;;;;;;7.18;4.55;;;4.30;99.90;;;;;;4903566;29;20379;-75
2024/01/01 00:17:15;;;;;;;5.85;3.28;;;4.30;99.90;;;;;;4903468;29;20645;-74
2024/01/01 00:19:41;;;;;;;5.82;3.63;;;4.40;99.90;;;;;;4905299;29;20431;-75
2024/01/01 00:22:07;;;;;;;4.70;2.95;;;4.40;99.90;;;;;;4905373;29;20084;-75
2024/01/01 00:24:33;;;;;;;4.55;2.75;;;4.50;99.90;;;;;;4905575;29;20472;-74
2024/01/01 00:26:58;;;;;;;5.20;3.00;;;4.60;99.90;;;;;;4905781;29;20040;-75
2024/01/01 00:29:27;;;;;;;5.13;3.35;;;4.70;99.90;;;;;;4904977;29;20026;-74
2024/01/01 00:31:52;;;;;;;5.03;2.53;;;4.70;99.90;;;;;;4905647;29;20060;-75
2024/01/01 00:34:19;;;;;;;4.60;2.40;;;4.80;99.90;;;;;;4905474;29;20456;-75
2024/01/01 00:36:44;;;;;;;4.57;2.70;;;4.80;99.90;;;;;;4904943;29;20031;-74
2024/01/01 00:39:10;;;;;;;4.80;2.20;;;4.80;99.90;;;;;;4906166;29;20095;-74
2024/01/01 00:41:38;;;;;;;4.57;2.80;;;4.90;99.90;;;;;;4897492;29;20052;-74
2024/01/01 00:44:04;;;;;;;3.58;2.08;;;5.00;99.90;;;;;;4898677;29;20043;-74
2024/01/01 00:46:30;;;;;;;4.40;2.03;;;5.00;99.90;;;;;;4898845;29;20061;-74
2024/01/01 00:48:56;;;;;;;3.92;1.80;;;5.10;99.90;;;;;;4899976;29;20039;-72
2024/01/01 00:51:22;;;;;;;2.97;1.60;;;5.10;99.90;;;;;;4904735;29;20083;-74
2024/01/01 00:53:47;;;;;;;3.80;1.80;;;5.30;99.90;;;;;;4905183;29;20051;-75
2024/01/01 00:56:13;;;;;;;3.58;1.98;;;5.30;99.90;;;;;;4904646;29;20052;-75
2024/01/01 00:58:40;;;;;;;3.90;1.95;;;5.30;99.90;;;;;;4903677;29;20431;-74
2024/01/01 01:01:07;;;;;;;3.55;1.73;;;5.20;99.90;;;;;;4905150;29;20042;-74
2024/01/01 01:03:34;;;;;;;2.88;1.63;;;5.20;99.90;;;;;;4905125;29;20036;-74
2024/01/01 01:06:00;;;;;;;2.88;1.50;;;5.30;99.90;;;;;;4904531;29;20034;-75
2024/01/01 01:08:26;;;;;;;3.08;1.30;;;5.30;99.90;;;;;;4904699;29;20077;-74
2024/01/01 01:10:51;;;;;;;3.30;1.52;;;5.40;99.90;;;;;;4904791;29;20056;-74
2024/01/01 01:13:17;;;;;;;3.17;1.65;;;5.30;99.90;;;;;;4904663;29;20044;-74
2024/01/01 01:15:43;;;;;;;8.77;4.50;;;5.30;99.90;;;;;;4905103;29;20056;-75
2024/01/01 01:18:08;;;;;;;7.15;3.83;;;5.20;99.90;;;;;;4904667;29;20043;-74
2024/01/01 01:20:34;;;;;;;16.50;13.02;;;5.10;99.90;;;;;;4904191;29;20771;-74
2024/01/01 01:23:00;;;;;;;9.45;7.07;;;5.00;99.90;;;;;;4904393;29;20044;-75
2024/01/01 01:25:25;;;;;;;7.10;5.28;;;5.00;99.90;;;;;;4904886;29;20047;-74
2024/01/01 01:27:51;;;;;;;5.07;3.65;;;5.00;99.90;;;;;;4903995;29;20475;-75
2024/01/01 01:30:17;;;;;;;5.47;3.75;;;4.90;99.90;;;;;;4904632;29;20040;-75
2024/01/01 01:32:42;;;;;;;6.63;4.78;;;4.90;99.90;;;;;;4904545;29;20569;-74
2024/01/01 01:35:08;;;;;;;6.90;4.70;;;4.80;99.90;;;;;;4904353;29;20043;-75
2024/01/01 01:37:34;;;;;;;5.72;3.65;;;4.70;99.90;;;;;;4904456;29;20346;-75
2024/01/01 01:40:00;;;;;;;6.80;3.83;;;4.70;99.90;;;;;;4904163;29;20107;-74
2024/01/01 01:42:25;;;;;;;10.85;5.25;;;4.60;99.90;;;;;;4903708;29;20032;-75
2024/01/01 01:44:51;;;;;;;4.95;2.95;;;4.60;99.90;;;;;;4902176;29;20032;-74
2024/01/01 01:47:17;;;;;;;3.40;1.92;;;4.50;99.90;;;;;;4903887;29;20036;-74
2024/01/01 01:49:43;;;;;;;4.60;2.30;;;4.40;99.90;;;;;;4903634;29;20032;-74
2024/01/01 01:52:11;;;;;;;3.85;1.95;;;4.20;99.90;;;;;;4904004;29;20036;-74
2024/01/01 01:54:37;;;;;;;5.50;2.53;;;4.30;99.90;;;;;;4904197;29;20099;-75
2024/01/01 01:57:04;;;;;;;4.40;2.33;;;4.30;99.90;;;;;;4903591;29;20040;-74
2024/01/01 01:59:30;;;;;;;3.20;1.75;;;4.20;99.90;;;;;;4903414;29;20183;-76
2024/01/01 02:01:57;;;;;;;3.63;1.80;;;4.20;99.90;;;;;;4904294;29;20024;-74
2024/01/01 02:04:26;;;;;;;5.78;2.35;;;4.20;99.90;;;;;;4904292;29;20039;-74
2024/01/01 02:06:51;;;;;;;6.40;2.55;;;4.20;99.90;;;;;;4904295;29;20039;-75
2024/01/01 02:09:17;;;;;;;5.85;3.40;;;4.10;99.90;;;;;;4903770;29;20029;-75
2024/01/01 02:11:43;;;;;;;5.50;3.47;;;4.10;99.90;;;;;;4903859;29;20095;-74
2024/01/01 02:14:16;;;;;;;4.85;2.85;;;3.90;99.90;;;;;;4903880;29;20032;-74
2024/01/01 02:16:44;;;;;;;4.75;2.70;;;3.80;99.90;;;;;;4903766;29;20130;-76
2024/01/01 02:19:21;;;;;;;5.57;2.75;;;3.70;99.90;;;;;;4903608;29;20498;-74
2024/01/01 02:21:48;;;;;;;5.15;2.33;;;3.70;99.90;;;;;;4903469;29;20095;-75
2024/01/01 02:24:15;;;;;;;4.30;2.28;;;3.80;99.90;;;;;;4886645;29;20482;-75
2024/01/01 02:26:45;;;;;;;5.10;2.10;;;3.70;99.90;;;;;;4903897;29;20463;-74
2024/01/01 02:29:11;;;;;;;4.05;1.95;;;3.70;99.90;;;;;;4903503;29;20098;-74
2024/01/01 02:31:37;;;;;;;8.88;4.25;;;3.60;99.90;;;;;;4903864;29;20063;-75
2024/01/01 02:34:03;;;;;;;5.68;2.85;;;3.60;99.90;;;;;;4903450;29;20135;-74
2024/01/01 02:36:29;;;;;;;4.47;2.22;;;3.40;99.90;;;;;;4903449;29;20057;-75
2024/01/01 02:38:55;;;;;;;4.78;2.45;;;3.40;99.90;;;;;;4903274;29;20036;-74
2024/01/01 02:41:21;;;;;;;5.40;2.53;;;3.40;99.90;;;;;;4903751;29;20099;-74
2024/01/01 02:43:47;;;;;;;5.53;3.10;;;3.30;99.90;;;;;;4903939;29;20498;-74
2024/01/01 02:46:13;;;;;;;6.95;3.78;;;3.40;99.90;;;;;;4903540;29;20032;-74
2024/01/01 02:48:38;;;;;;;6.05;3.15;;;3.40;99.90;;;;;;4903498;29;20032;-75
2024/01/01 02:51:04;;;;;;;5.60;2.83;;;3.40;99.90;;;;;;4903204;29;20036;-74
2024/01/01 02:53:32;;;;;;;5.45;2.58;;;3.40;99.90;;;;;;4903437;29;20525;-74
2024/01/01 02:55:58;;;;;;;5.32;2.58;;;3.40;99.90;;;;;;4903878;29;20028;-74
2024/01/01 02:58:23;;;;;;;5.95;2.83;;;3.30;99.90;;;;;;4903413;29;20111;-75
2024/01/01 03:00:49;;;;;;;5.25;2.58;;;3.10;99.90;;;;;;4903426;29;20071;-76
2024/01/01 03:03:15;;;;;;;6.78;3.53;;;3.00;99.90;;;;;;4903412;29;20031;-74
2024/01/01 03:05:41;;;;;;;9.18;4.78;;;3.00;99.90;;;;;;4902985;29;20703;-74
2024/01/01 03:08:10;;;;;;;7.95;4.40;;;3.10;99.90;;;;;;4903076;29;20044;-75
2024/01/01 03:10:36;;;;;;;6.97;3.85;;;3.20;99.90;;;;;;4903572;29;20414;-74
2024/01/01 03:13:02;;;;;;;5.00;2.80;;;3.20;99.90;;;;;;4903236;29;20044;-75
2024/01/01 03:15:28;;;;;;;7.35;4.00;;;3.20;99.90;;;;;;4903346;29;20060;-75
2024/01/01 03:17:54;;;;;;;8.60;3.92;;;3.30;99.90;;;;;;4903145;29;20063;-74
2024/01/01 03:20:20;;;;;;;6.88;4.25;;;3.40;99.90;;;;;;4903027;29;20126;-75
2024/01/01 03:22:45;;;;;;;7.63;3.83;;;3.30;99.90;;;;;;4904870;29;20213;-74
2024/01/01 03:25:11;;;;;;;6.32;2.78;;;3.30;99.90;;;;;;4906214;29;20096;-74
2024/01/01 03:27:37;;;;;;;6.93;3.80;;;3.00;99.90;;;;;;4906067;29;20064;-75
2024/01/01 03:30:08;;;;;;;5.43;3.15;;;3.10;99.90;;;;;;4906300;29;20032;-75
2024/01/01 03:32:35;;;;;;;6.18;3.88;;;3.10;99.90;;;;;;4906404;29;20395;-74
2024/01/01 03:35:01;;;;;;;6.75;3.58;;;3.40;99.90;;;;;;4906651;29;20391;-75
2024/01/01 03:37:26;;;;;;;7.35;3.42;;;3.50;99.90;;;;;;4906253;29;20032;-75
2024/01/01 03:39:52;;;;;;;6.80;3.30;;;3.60;99.90;;;;;;4906545;29;20032;-74
2024/01/01 03:42:18;;;;;;;7.97;4.57;;;3.50;99.90;;;;;;4906476;29;20043;-74
2024/01/01 03:44:43;;;;;;;8.20;5.18;;;3.60;99.90;;;;;;4906329;29;20034;-74
2024/01/01 03:47:09;;;;;;;9.77;6.00;;;3.60;99.90;;;;;;4905873;29;20044;-74
2024/01/01 03:49:35;;;;;;;9.35;5.22;;;3.70;99.90;;;;;;4905766;29;20032;-74
2024/01/01 03:52:00;;;;;;;8.23;4.90;;;3.60;99.90;;;;;;4906187;29;20032;-74
2024/01/01 03:54:26;;;;;;;7.55;4.47;;;3.80;99.90;;;;;;4905741;29;20128;-75
2024/01/01 03:56:52;;;;;;;9.52;4.75;;;4.00;99.90;;;;;;4905675;29;20032;-75
2024/01/01 03:59:17;;;;;;;9.43;5.45;;;4.00;99.90;;;;;;4906513;29;20467;-75
2024/01/01 04:01:43;;;;;;;11.00;4.95;;;4.10;99.90;;;;;;4904018;29;20119;-76
2024/01/01 04:04:09;;;;;;;7.97;4.53;;;4.00;99.90;;;;;;4900563;29;20052;-76
2024/01/01 04:06:35;;;;;;;10.18;5.72;;;4.00;99.90;;;;;;4901082;29;20032;-76
2024/01/01 04:09:02;;;;;;;7.10;4.80;;;4.10;99.90;;;;;;4901598;29;20091;-76
2024/01/01 04:11:27;;;;;;;9.05;5.18;;;4.10;99.90;;;;;;4901940;29;20035;-76
2024/01/01 04:13:53;;;;;;;7.47;4.40;;;4.00;99.90;;;;;;4901277;29;20658;-76
2024/01/01 04:16:19;;;;;;;8.90;5.60;;;3.90;99.90;;;;;;4901179;29;20130;-76
2024/01/01 04:18:46;;;;;;;9.18;5.22;;;3.80;99.90;;;;;;4898085;29;20714;-76
2024/01/01 04:21:11;;;;;;;8.55;5.13;;;3.70;99.90;;;;;;4898955;29;21166;-76
2024/01/01 04:23:37;;;;;;;7.57;4.90;;;3.80;99.90;;;;;;4899194;29;20030;-76
2024/01/01 04:26:03;;;;;;;8.35;4.72;;;3.70;99.90;;;;;;4899021;29;20395;-76
2024/01/01 04:28:28;;;;;;;9.25;5.13;;;3.70;99.90;;;;;;4899337;29;20032;-76
2024/01/01 04:30:54;;;;;;;9.85;5.32;;;3.70;99.90;;;;;;4901637;29;20119;-76
2024/01/01 04:33:20;;;;;;;9.00;4.80;;;3.70;99.90;;;;;;4901470;29;20364;-76
2024/01/01 04:35:46;;;;;;;11.38;7.00;;;3.70;99.90;;;;;;4901781;29;20039;-76
2024/01/01 04:38:12;;;;;;;12.38;6.20;;;3.90;99.90;;;;;;4884117;29;20032;-76
2024/01/01 04:40:37;;;;;;;11.15;5.55;;;3.90;99.90;;;;;;4884373;29;20044;-76
2024/01/01 04:43:04;;;;;;;9.00;5.03;;;3.80;99.90;;;;;;4901125;29;20036;-76
2024/01/01 04:45:35;;;;;;;6.72;3.95;;;3.70;99.90;;;;;;4900615;29;20040;-76
2024/01/01 04:48:02;;;;;;;6.90;4.60;;;3.40;99.90;;;;;;4901171;29;21401;-75
2024/01/01 04:50:28;;;;;;;9.57;5.30;;;3.50;99.90;;;;;;4900951;29;20677;-76
2024/01/01 04:52:54;;;;;;;8.52;4.72;;;3.60;99.90;;;;;;4900927;29;20048;-76
2024/01/01 04:55:20;;;;;;;9.27;5.18;;;3.60;99.90;;;;;;4900507;29;20042;-75
2024/01/01 04:57:46;;;;;;;9.45;5.22;;;3.60;99.90;;;;;;4900958;29;20202;-76
2024/01/01 05:00:13;;;;;;;10.57;6.50;;;3.60;99.90;;;;;;4901110;29;20032;-76
2024/01/01 05:02:39;;;;;;;8.93;5.45;;;3.70;99.90;;;;;;4898004;29;20080;-76
2024/01/01 05:05:05;;;;;;;7.75;4.75;;;3.60;99.90;;;;;;4897959;29;20151;-76
2024/01/01 05:07:31;;;;;;;9.70;5.97;;;3.60;99.90;;;;;;4897588;29;20036;-76
2024/01/01 05:09:57;;;;;;;8.93;5.00;;;3.50;99.90;;;;;;4898021;29;20060;-76
2024/01/01 05:12:22;;;;;;;9.23;5.30;;;3.50;99.90;;;;;;4898108;29;20351;-76
2024/01/01 05:14:48;;;;;;;10.60;4.90;;;3.50;99.90;;;;;;4897701;29;20032;-76
2024/01/01 05:17:14;;;;;;;12.05;6.57;;;3.40;99.90;;;;;;4897631;29;20047;-76
2024/01/01 05:19:39;;;;;;;10.57;6.32;;;3.50;99.90;;;;;;4898210;29;20038;-76
2024/01/01 05:22:06;;;;;;;9.43;5.82;;;3.70;99.90;;;;;;4897977;29;20083;-76
2024/01/01 05:24:32;;;;;;;10.77;6.22;;;3.60;99.90;;;;;;4897878;29;20036;-76
2024/01/01 05:26:57;;;;;;;8.85;5.28;;;3.60;99.90;;;;;;4897772;29;20526;-76
2024/01/01 05:29:23;;;;;;;10.05;5.13;;;3.40;99.90;;;;;;4897123;29;20039;-76
2024/01/01 05:31:48;;;;;;;11.10;5.57;;;3.20;99.90;;;;;;4897693;29;20043;-76
2024/01/01 05:34:16;;;;;;;10.15;6.15;;;3.30;99.90;;;;;;4897094;29;20052;-76
2024/01/01 05:36:42;;;;;;;10.75;5.88;;;3.30;99.90;;;;;;4897141;29;20028;-76
2024/01/01 05:39:07;;;;;;;9.43;5.72;;;3.30;99.90;;;;;;4898345;29;20399;-76
2024/01/01 05:41:33;;;;;;;11.20;6.57;;;3.40;99.90;;;;;;4900142;29;20120;-75
2024/01/01 05:43:59;;;;;;;12.27;6.38;;;3.50;99.90;;;;;;4899936;29;20032;-76
2024/01/01 05:46:24;;;;;;;12.57;6.90;;;3.70;99.90;;;;;;4899917;29;20087;-76
2024/01/01 05:48:50;;;;;;;11.73;6.40;;;3.70;99.90;;;;;;4900162;29;20550;-76
2024/01/01 05:51:16;;;;;;;11.48;6.43;;;3.60;99.90;;;;;;4899441;29;20040;-75
2024/01/01 05:53:42;;;;;;;10.60;6.25;;;3.70;99.90;;;;;;4900766;29;20033;-76
2024/01/01 05:56:07;;;;;;;13.43;7.82;;;3.60;99.90;;;;;;4900311;29;20712;-76
2024/01/01 05:58:33;;;;;;;13.43;6.85;;;3.80;99.90;;;;;;4898381;29;20383;-75
2024/01/01 06:00:59;;;;;;;12.52;7.65;;;3.70;99.90;;;;;;4896837;29;20173;-75
2024/01/01 06:03:25;;;;;;;12.27;6.78;;;3.80;99.90;;;;;;4897317;29;20064;-76
2024/01/01 06:05:51;;;;;;;14.63;8.40;;;3.70;99.90;;;;;;4897186;29;20032;-77
2024/01/01 06:08:17;;;;;;;13.07;8.25;;;3.90;99.90;;;;;;4898764;29;20081;-75
2024/01/01 06:10:43;;;;;;;13.10;7.10;;;3.80;99.90;;;;;;4900230;29;20031;-75
2024/01/01 06:13:08;;;;;;;13.50;7.93;;;3.60;99.90;;;;;;4899253;29;20455;-75
2024/01/01 06:15:34;;;;;;;13.73;8.30;;;3.60;99.90;;;;;;4899542;29;20024;-75
2024/01/01 06:18:00;;;;;;;13.55;7.72;;;3.60;99.90;;;;;;4900158;29;20175;-75
2024/01/01 06:20:26;;;;;;;14.93;8.00;;;3.60;99.90;;;;;;4900280;29;20738;-75
2024/01/01 06:22:53;;;;;;;12.02;7.15;;;3.70;99.90;;;;;;4900071;29;20044;-76
2024/01/01 06:25:18;;;;;;;15.45;8.43;;;3.80;99.90;;;;;;4900280;29;20519;-75
2024/01/01 06:27:44;;;;;;;15.43;8.52;;;3.90;99.90;;;;;;4899703;29;20293;-75
2024/01/01 06:30:10;;;;;;;14.88;8.73;;;3.90;99.90;;;;;;4899315;29;20106;-75
2024/01/01 06:32:36;;;;;;;15.18;8.45;;;3.90;99.90;;;;;;4899808;29;20048;-76
2024/01/01 06:35:01;;;;;;;13.02;7.68;;;3.80;99.90;;;;;;4900273;29;20403;-75
2024/01/01 06:37:27;;;;;;;14.05;8.88;;;3.70;99.90;;;;;;4899767;29;20032;-74
2024/01/01 06:39:52;;;;;;;15.02;8.65;;;3.70;99.90;;;;;;4899836;29;20032;-75
2024/01/01 06:42:18;;;;;;;15.32;8.93;;;3.70;99.90;;;;;;4899322;29;20032;-75
2024/01/01 06:44:44;;;;;;;12.85;7.40;;;3.70;99.90;;;;;;4899927;29;20079;-75
2024/01/01 06:47:09;;;;;;;14.65;8.73;;;3.50;99.90;;;;;;4899604;29;20644;-75
2024/01/01 06:49:36;;;;;;;17.65;9.40;;;3.50;99.90;;;;;;4900071;29;20679;-75
2024/01/01 06:52:03;;;;;;;13.52;8.23;;;3.40;99.90;;;;;;4900358;29;20036;-75
2024/01/01 06:54:29;;;;;;;16.10;9.73;;;3.40;99.90;;;;;;4899581;29;20607;-75
2024/01/01 06:56:54;;;;;;;11.07;7.93;;;3.30;99.90;;;;;;4900570;29;20039;-76
2024/01/01 06:59:27;;;;;;;12.93;7.60;;;3.30;99.90;;;;;;4903443;29;20419;-75
2024/01/01 07:01:53;;;;;;;13.65;7.40;;;3.30;99.90;;;;;;4903464;29;20137;-75
2024/01/01 07:04:18;;;;;;;13.18;7.68;;;3.20;99.90;;;;;;4903077;29;20123;-75
2024/01/01 07:06:44;;;;;;;17.55;8.75;;;3.20;99.90;;;;;;4903798;29;20652;-75
2024/01/01 07:09:10;;;;;;;14.45;7.68;;;3.20;99.90;;;;;;4903377;29;20047;-75
2024/01/01 07:11:36;;;;;;;14.25;7.45;;;3.40;99.90;;;;;;4900899;29;20064;-75
2024/01/01 07:14:03;;;;;;;13.07;7.07;;;3.50;99.90;;;;;;4900150;29;20477;-74
2024/01/01 07:16:29;;;;;;;13.75;7.30;;;3.50;99.90;;;;;;4900814;29;20024;-74
2024/01/01 07:18:54;;;;;;;12.55;7.57;;;3.50;99.90;;;;;;4899893;29;20304;-75
2024/01/01 07:21:20;;;;;;;14.25;7.60;;;3.50;99.90;;;;;;4900114;29;20056;-75
2024/01/01 07:23:46;;;;;;;11.48;7.07;;;3.50;99.90;;;;;;4900130;29;20040;-76
2024/01/01 07:26:12;;;;;;;13.05;8.07;;;3.50;99.90;;;;;;4899970;29;21227;-76
2024/01/01 07:28:37;;;;;;;18.52;11.30;;;3.70;99.90;;;;;;4899592;29;20036;-76
2024/01/01 07:31:03;;;;;;;12.18;7.50;;;3.90;99.90;;;;;;4900565;29;20035;-76
2024/01/01 07:33:29;;;;;;;12.43;6.57;;;4.00;99.90;;;;;;4899381;29;20107;-76
2024/01/01 07:35:55;;;;;;;13.68;7.78;;;4.00;99.90;;;;;;4899373;29;20024;-76
2024/01/01 07:38:20;;;;;;;11.43;7.07;;;4.00;99.90;;;;;;4899869;29;20036;-75
2024/01/01 07:40:46;;;;;;;13.57;7.32;;;4.00;99.90;;;;;;4899136;29;20090;-76
2024/01/01 07:43:12;;;;;;;14.73;7.32;;;4.00;99.90;;;;;;4899332;29;20031;-76
2024/01/01 07:45:37;;;;;;;15.55;8.05;;;4.00;99.90;;;;;;4881863;29;20031;-75
2024/01/01 07:48:04;;;;;;;14.50;8.02;;;4.00;99.90;;;;;;4899511;29;20036;-76
2024/01/01 07:50:30;;;;;;;14.02;8.05;;;4.00;99.90;;;;;;4899731;29;20040;-75
2024/01/01 07:52:56;;;;;;;11.93;6.95;;;3.90;99.90;;;;;;4899424;29;20052;-76
2024/01/01 07:55:22;;;;;;;12.88;7.13;;;3.80;99.90;;;;;;4899205;29;20036;-75
2024/01/01 07:57:47;;;;;;;11.63;6.75;;;3.90;99.90;;;;;;4899211;29;21029;-76
2024/01/01 08:00:15;;;;;;;10.82;7.25;;;4.00;99.90;;;;;;4899287;29;20039;-74
2024/01/01 08:02:43;;;;;;;11.05;6.07;;;4.00;99.90;;;;;;4899420;29;20069;-74
2024/01/01 08:05:09;;;;;;;11.07;6.78;;;3.90;99.90;;;;;;4899283;29;20403;-74
2024/01/01 08:07:34;;;;;;;10.38;6.38;;;3.90;99.90;;;;;;4899080;29;20036;-75
2024/01/01 08:10:00;;;;;;;10.15;6.10;;;4.00;99.90;;;;;;4899722;29;20032;-74
2024/01/01 08:12:26;;;;;;;11.98;6.65;;;3.90;99.90;;;;;;4899066;29;20047;-75
2024/01/01 08:14:51;;;;;;;11.10;6.10;;;3.90;99.90;;;;;;4895868;29;20712;-74
2024/01/01 08:17:17;;;;;;;17.65;12.30;;;4.00;99.90;;;;;;4898785;29;20155;-76
2024/01/01 08:19:43;;;;;;;14.02;7.05;;;4.00;99.90;;;;;;4898655;29;20036;-76
2024/01/01 08:22:08;;;;;;;12.77;7.38;;;4.10;99.90;;;;;;4898893;29;20149;-76
2024/01/01 08:24:35;;;;;;;11.27;6.15;;;4.10;99.90;;;;;;4899322;29;20032;-76
2024/01/01 08:27:01;;;;;;;12.00;7.78;;;4.20;99.90;;;;;;4899742;29;20119;-76
2024/01/01 08:29:26;;;;;;;13.02;7.25;;;4.20;99.90;;;;;;4898306;29;20083;-76
2024/01/01 08:31:52;;;;;;;12.25;7.00;;;4.30;99.90;;;;;;4898271;29;20390;-76
2024/01/01 08:34:18;;;;;;;13.50;7.38;;;4.30;99.90;;;;;;4898176;29;20036;-76
2024/01/01 08:36:44;;;;;;;12.18;6.90;;;4.30;99.90;;;;;;4898568;29;20155;-76
2024/01/01 08:39:09;;;;;;;14.93;7.72;;;4.30;99.90;;;;;;4898275;29;20047;-76
2024/01/01 08:41:44;;;;;;;13.93;7.65;;;4.10;99.90;;;;;;4898649;29;20028;-76
2024/01/01 08:44:10;;;;;;;14.55;8.60;;;4.20;99.90;;;;;;4898904;29;20036;-76
2024/01/01 08:46:35;;;;;;;14.48;8.02;;;4.20;99.90;;;;;;4899030;29;20577;-76
2024/01/01 08:49:01;;;;;;;13.35;7.88;;;4.20;99.90;;;;;;4898402;29;20554;-76
2024/01/01 08:51:27;;;;;;;13.60;8.93;;;4.30;99.90;;;;;;4898228;29;20107;-76
2024/01/01 08:53:52;;;;;;;16.15;9.23;;;4.30;99.90;;;;;;4898348;29;20047;-76
2024/01/01 08:56:18;;;;;;;15.55;8.32;;;4.40;99.90;;;;;;4898718;29;20037;-76
2024/01/01 08:58:44;;;;;;;14.27;7.70;;;4.40;99.90;;;;;;4898295;29;20544;-76
2024/01/01 09:01:09;;;;;;;14.82;7.35;;;4.50;99.90;;;;;;4898150;29;20036;-76
2024/01/01 09:03:38;;;;;;;12.38;7.22;;;4.60;99.90;;;;;;4898588;29;20800;-76
2024/01/01 09:06:04;;;;;;;13.25;8.10;;;4.60;99.90;;;;;;4898269;29;20028;-76
2024/01/01 09:08:30;;;;;;;16.60;9.95;;;4.70;99.90;;;;;;4898286;29;20051;-76
2024/01/01 09:10:56;;;;;;;18.73;9.93;;;4.70;99.90;;;;;;4881156;29;20197;-76
2024/01/01 09:13:22;;;;;;;18.60;10.25;;;4.80;99.90;;;;;;4898070;29;20613;-76
2024/01/01 09:15:48;;;;;;;14.48;7.70;;;4.80;99.90;;;;;;4897769;29;20036;-76
2024/01/01 09:18:14;;;;;;;13.70;8.13;;;4.80;99.90;;;;;;4897866;29;20036;-76
2024/01/01 09:20:41;;;;;;;15.60;7.60;;;4.80;99.90;;;;;;4896700;29;20067;-76
2024/01/01 09:23:07;;;;;;;13.57;8.07;;;4.90;99.90;;;;;;4898050;29;20028;-77
2024/01/01 09:25:37;;;;;;;13.52;7.10;;;4.90;99.90;;;;;;4897602;29;20032;-76
2024/01/01 09:28:03;;;;;;;13.27;7.68;;;4.90;99.90;;;;;;4897538;29;20383;-76
2024/01/01 09:30:28;;;;;;;13.15;7.43;;;4.90;99.90;;;;;;4897918;29;20036;-76
2024/01/01 09:32:54;;;;;;;13.30;7.72;;;4.90;99.90;;;;;;4897106;29;20099;-76
2024/01/01 09:35:19;;;;;;;12.23;7.43;;;5.00;99.90;;;;;;4897323;29;20036;-76
2024/01/01 09:37:45;;;;;;;13.00;7.38;;;5.00;99.90;;;;;;4897509;29;20036;-76
2024/01/01 09:40:11;;;;;;;16.92;7.80;;;4.90;99.90;;;;;;4897753;29;20039;-76
2024/01/01 09:42:45;;;;;;;13.57;7.88;;;4.90;99.90;;;;;;4897499;29;20107;-76
2024/01/01 09:45:12;;;;;;;16.00;7.80;;;4.90;99.90;;;;;;4897022;29;20474;-76
2024/01/01 09:47:39;;;;;;;14.15;7.85;;;4.90;99.90;;;;;;4897335;29;20031;-76
2024/01/01 09:50:05;;;;;;;15.52;8.18;;;5.00;99.90;;;;;;4897497;29;20032;-76
2024/01/01 09:52:31;;;;;;;16.05;9.43;;;5.00;99.90;;;;;;4897967;29;20055;-76
2024/01/01 09:54:57;;;;;;;18.15;8.98;;;4.90;99.90;;;;;;4897332;29;20039;-76
2024/01/01 09:57:23;;;;;;;14.60;9.00;;;4.80;99.90;;;;;;4897324;29;20061;-76
2024/01/01 09:59:49;;;;;;;14.93;9.15;;;4.80;99.90;;;;;;4896923;29;20028;-76
2024/01/01 10:02:15;;;;;;;13.82;8.00;;;4.90;99.90;;;;;;4897441;29;20040;-76
2024/01/01 10:04:41;;;;;;;16.15;10.18;;;5.00;99.90;;;;;;4897972;29;20034;-76
2024/01/01 10:07:07;;;;;;;16.50;9.63;;;5.10;99.90;;;;;;4897033;29;20028;-76
2024/01/01 10:09:47;;;;;;;12.93;7.50;;;5.20;99.90;;;;;;4897221;29;20043;-76
2024/01/01 10:12:12;;;;;;;13.45;7.28;;;5.10;99.90;;;;;;4897042;29;20478;-76
2024/01/01 10:14:48;;;;;;;12.48;6.95;;;5.00;99.90;;;;;;4896487;29;20043;-76
2024/01/01 10:17:17;;;;;;;11.07;6.50;;;5.00;99.90;;;;;;4896854;29;20115;-76
2024/01/01 10:19:48;;;;;;;15.00;9.98;;;5.20;99.90;;;;;;4897072;29;20036;-76
2024/01/01 10:22:14;;;;;;;16.15;8.90;;;5.20;99.90;;;;;;4897132;29;20043;-76
2024/01/01 10:24:40;;;;;;;14.75;7.93;;;5.30;99.90;;;;;;4897476;29;20028;-75
2024/01/01 10:27:06;;;;;;;13.48;7.65;;;5.30;99.90;;;;;;4896777;29;20572;-76
2024/01/01 10:29:35;;;;;;;48.10;32.65;;;5.30;99.90;;;;;;4896952;29;20042;-76
2024/01/01 10:32:01;;;;;;;26.63;15.80;;;5.40;99.90;;;;;;4896750;29;20036;-76
2024/01/01 10:34:29;;;;;;;16.27;10.02;;;5.10;99.90;;;;;;4896782;29;20074;-76
2024/01/01 10:36:54;;;;;;;23.67;15.57;;;5.20;99.90;;;;;;4897102;29;21315;-76
2024/01/01 10:39:21;;;;;;;27.48;17.00;;;5.30;99.90;;;;;;4896687;29;20032;-75
2024/01/01 10:41:49;;;;;;;21.40;11.98;;;5.40;99.90;;;;;;4896500;29;20517;-76
2024/01/01 10:44:14;;;;;;;20.45;12.95;;;5.30;99.90;;;;;;4896583;29;20036;-76
2024/01/01 10:46:45;;;;;;;13.43;8.48;;;5.40;99.90;;;;;;4897468;29;20505;-76
2024/01/01 10:49:16;;;;;;;12.32;7.72;;;5.40;99.90;;;;;;4896893;29;20048;-75
2024/01/01 10:52:00;;;;;;;27.38;20.52;;;5.50;99.90;;;;;;4879268;29;20544;-76
2024/01/01 10:54:45;;;;;;;14.13;8.07;;;5.50;99.90;;;;;;4895958;29;20048;-76
2024/01/01 10:57:38;;;;;;;13.23;7.53;;;5.40;99.90;;;;;;4896633;29;20043;-76
2024/01/01 11:00:15;;;;;;;10.90;6.65;;;5.40;99.90;;;;;;4896557;29;20450;-76
2024/01/01 11:02:43;;;;;;;12.25;6.93;;;5.60;99.90;;;;;;4896433;29;20032;-76
2024/01/01 11:05:11;;;;;;;14.45;7.88;;;5.50;99.90;;;;;;4896800;29;20044;-76
2024/01/01 11:07:52;;;;;;;57.42;27.35;;;5.50;99.90;;;;;;4896644;29;20522;-76
2024/01/01 11:10:40;;;;;;;41.20;19.90;;;5.80;99.90;;;;;;4897173;29;20123;-76
2024/01/01 11:13:09;;;;;;;16.70;9.25;;;5.90;99.90;;;;;;4895873;29;20036;-76
2024/01/01 11:15:40;;;;;;;21.33;12.48;;;5.80;99.90;;;;;;4879501;29;20419;-76
2024/01/01 11:18:17;;;;;;;18.10;9.80;;;5.90;99.90;;;;;;4896512;29;20036;-76
2024/01/01 11:20:55;;;;;;;30.67;17.95;;;5.90;99.90;;;;;;4896106;29;20389;-76
2024/01/01 11:23:42;;;;;;;22.33;13.63;;;6.20;99.90;;;;;;4896376;29;21427;-76
2024/01/01 11:26:23;;;;;;;31.85;17.02;;;6.00;99.90;;;;;;4897402;29;20044;-76
2024/01/01 11:28:53;;;;;;;102.10;54.25;;;6.00;99.90;;;;;;4896032;29;20115;-76
2024/01/01 11:31:18;;;;;;;61.08;40.05;;;6.30;99.90;;;;;;4896891;29;20032;-76
2024/01/01 11:33:44;;;;;;;134.48;82.07;;;6.50;99.90;;;;;;4896257;29;20098;-76
2024/01/01 11:36:10;;;;;;;27.98;18.17;;;6.40;99.90;;;;;;4896885;29;20060;-75
2024/01/01 11:38:36;;;;;;;40.38;25.67;;;6.10;99.90;;;;;;4896551;29;20095;-76
2024/01/01 11:41:02;;;;;;;21.33;13.25;;;6.20;99.90;;;;;;4896264;29;20438;-76
2024/01/01 11:43:28;;;;;;;13.32;8.73;;;6.20;99.90;;;;;;4898439;29;20040;-75
2024/01/01 11:45:54;;;;;;;29.25;19.30;;;6.30;99.90;;;;;;4899947;29;20593;-76
2024/01/01 11:48:20;;;;;;;28.30;19.58;;;6.50;99.90;;;;;;4899599;29;20032;-75
2024/01/01 11:50:49;;;;;;;21.73;14.80;;;6.70;99.90;;;;;;4899063;29;20367;-76
2024/01/01 11:53:18;;;;;;;26.80;18.50;;;6.70;99.90;;;;;;4899106;29;20239;-76
2024/01/01 11:55:44;;;;;;;16.60;11.68;;;6.80;99.90;;;;;;4898324;29;20035;-74
2024/01/01 11:58:11;;;;;;;26.63;17.75;;;6.80;99.90;;;;;;4897493;29;20032;-75
2024/01/01 12:00:36;;;;;;;28.90;21.23;;;6.80;99.90;;;;;;4898270;29;20046;-75
2024/01/01 12:03:03;;;;;;;17.25;10.68;;;6.70;99.90;;;;;;4898531;29;20395;-74
2024/01/01 12:05:30;;;;;;;12.27;7.97;;;6.70;99.90;;;;;;4897840;29;20046;-75
2024/01/01 12:07:56;;;;;;;8.20;4.72;;;6.60;99.90;;;;;;4898031;29;20040;-76
2024/01/01 12:10:23;;;;;;;17.58;13.63;;;6.50;99.90;;;;;;4898310;29;20032;-74
2024/01/01 12:12:59;;;;;;;14.55;8.68;;;6.70;99.90;;;;;;4897729;29;20035;-75
2024/01/01 12:15:30;;;;;;;12.23;6.72;;;6.70;99.90;;;;;;4897765;29;20040;-75
2024/01/01 12:17:56;;;;;;;15.52;11.15;;;6.80;99.90;;;;;;4897750;29;20271;-75
2024/01/01 12:20:23;;;;;;;13.63;8.30;;;6.80;99.90;;;;;;4897870;29;20388;-74
2024/01/01 12:22:49;;;;;;;11.07;7.13;;;6.50;99.90;;;;;;4897720;29;20056;-75
2024/01/01 12:25:18;;;;;;;14.25;7.22;;;6.30;99.90;;;;;;4897636;29;20056;-75
2024/01/01 12:27:59;;;;;;;9.30;5.60;;;6.40;99.90;;;;;;4897629;29;20036;-75
2024/01/01 12:30:27;;;;;;;10.68;5.82;;;6.40;99.90;;;;;;4897233;29;20040;-75
2024/01/01 12:32:53;;;;;;;9.35;5.53;;;6.50;99.90;;;;;;4897633;29;20183;-75
2024/01/01 12:35:19;;;;;;;12.90;7.47;;;6.60;99.90;;;;;;4897507;29;20083;-74
2024/01/01 12:37:48;;;;;;;15.40;10.65;;;6.60;99.90;;;;;;4896695;29;20547;-74
2024/01/01 12:40:16;;;;;;;15.30;10.20;;;6.70;99.90;;;;;;4897279;29;20036;-74
2024/01/01 12:42:44;;;;;;;17.20;12.05;;;6.70;99.90;;;;;;4896998;29;20067;-74
2024/01/01 12:45:12;;;;;;;14.15;9.23;;;6.70;99.90;;;;;;4897154;29;20484;-75
2024/01/01 12:47:39;;;;;;;10.82;7.57;;;6.70;99.90;;;;;;4865378;29;20072;-75